createdAt,value
2022-08-05T00:01:35.595Z,100060.84
2022-08-05T00:04:15.862Z,100068.75
2022-08-05T00:06:43.319Z,100062.03
2022-08-05T00:09:12.697Z,100065.66
2022-08-05T00:11:48.355Z,100063.13
2022-08-05T00:14:17.381Z,100069.50
2022-08-05T00:16:53.627Z,100067.16
2022-08-05T00:19:24.722Z,100068.59
2022-08-05T00:21:52.057Z,100064.00
2022-08-05T00:24:24.594Z,100070.66
2022-08-05T00:26:58.559Z,100069.31
2022-08-05T00:29:27.580Z,100064.75
2022-08-05T00:32:13.477Z,100066.00
2022-08-05T00:35:04.539Z,100063.34
2022-08-05T00:37:50.399Z,100066.16
2022-08-05T00:40:17.908Z,100064.84
2022-08-05T00:42:55.068Z,100061.47
2022-08-05T00:45:28.136Z,100066.28
2022-08-05T00:48:10.067Z,100060.34
2022-08-05T00:50:38.050Z,100052.28
2022-08-05T00:53:09.744Z,100054.34
2022-08-05T00:55:52.011Z,100045.94
2022-08-05T00:58:19.351Z,100054.47
2022-08-05T01:00:47.011Z,100051.88
2022-08-05T01:03:22.665Z,100054.94
2022-08-05T01:05:54.582Z,100050.03
2022-08-05T01:08:40.111Z,100049.19
2022-08-05T01:11:33.296Z,100054.09
2022-08-05T01:14:08.807Z,100054.75
2022-08-05T01:16:36.011Z,100052.03
2022-08-05T01:19:16.361Z,100059.38
2022-08-05T01:21:51.501Z,100058.22
2022-08-05T01:24:30.709Z,100056.13
2022-08-05T01:27:17.547Z,100057.81
2022-08-05T01:29:49.533Z,100060.03
2022-08-05T01:32:21.040Z,100055.72
2022-08-05T01:34:51.006Z,100062.69
2022-08-05T01:37:44.633Z,100057.94
2022-08-05T01:40:12.875Z,100062.00
2022-08-05T01:42:40.231Z,100051.44
2022-08-05T01:45:08.453Z,100051.94
2022-08-05T01:47:39.517Z,100055.69
2022-08-05T01:50:16.024Z,100055.03
2022-08-05T01:52:49.753Z,100053.69
2022-08-05T01:55:19.961Z,100050.72
2022-08-05T01:58:10.630Z,100054.06
2022-08-05T02:00:37.437Z,100047.69
2022-08-05T02:03:24.621Z,100052.47
2022-08-05T02:06:00.880Z,100045.13
2022-08-05T02:08:29.639Z,100047.09
2022-08-05T02:11:16.063Z,100054.06
2022-08-05T02:13:56.302Z,100053.03
2022-08-05T02:16:27.568Z,100054.56
2022-08-05T02:19:07.027Z,100050.31
2022-08-05T02:21:43.134Z,100046.88
2022-08-05T02:24:17.998Z,100049.59
2022-08-05T02:27:10.280Z,100048.53
2022-08-05T02:29:58.401Z,100049.97
2022-08-05T02:32:30.963Z,100047.31
2022-08-05T02:35:13.854Z,100044.88
2022-08-05T02:37:47.762Z,100043.00
2022-08-05T02:40:21.569Z,100046.00
2022-08-05T02:42:52.994Z,100042.47
2022-08-05T02:45:24.243Z,100039.53
2022-08-05T02:48:06.555Z,100034.13
2022-08-05T02:50:44.000Z,100040.44
2022-08-05T02:53:16.093Z,100039.84
2022-08-05T02:55:54.628Z,100034.19
2022-08-05T02:58:27.488Z,100039.44
2022-08-05T03:00:56.808Z,100036.22
2022-08-05T03:03:24.177Z,100040.34
2022-08-05T03:06:55.042Z,100035.72
2022-08-05T03:08:42.613Z,100029.72
2022-08-05T03:11:55.786Z,100032.22
2022-08-05T03:14:09.589Z,100025.72
2022-08-05T03:16:40.940Z,100024.03
2022-08-05T03:19:17.067Z,100030.59
2022-08-05T03:21:55.168Z,100030.59
2022-08-05T03:24:23.646Z,100027.06
2022-08-05T03:26:57.955Z,100026.78
2022-08-05T03:29:24.891Z,100027.09
2022-08-05T03:32:12.044Z,100023.78
2022-08-05T03:34:42.335Z,100027.38
2022-08-05T03:37:18.259Z,100027.63
2022-08-05T03:40:01.094Z,100027.63
2022-08-05T03:42:32.093Z,100018.91
2022-08-05T03:45:01.495Z,100031.19
2022-08-05T03:47:30.479Z,100031.78
2022-08-05T03:50:02.393Z,100027.16
2022-08-05T03:52:38.561Z,100024.94
2022-08-05T03:56:05.391Z,100019.53
2022-08-05T03:58:11.475Z,100031.28
2022-08-05T04:00:41.927Z,100031.75
2022-08-05T04:03:26.568Z,100033.16
2022-08-05T04:05:55.914Z,100029.03
2022-08-05T04:08:30.194Z,100038.88
2022-08-05T04:11:04.281Z,100038.88
2022-08-05T04:13:51.188Z,100035.84
2022-08-05T04:16:24.388Z,100033.38
2022-08-05T04:18:53.993Z,100040.72
2022-08-05T04:22:08.392Z,100043.06
2022-08-05T04:24:18.678Z,100043.94
2022-08-05T04:26:46.822Z,100042.38
2022-08-05T04:29:14.283Z,100038.19
2022-08-05T04:31:42.915Z,100043.31
2022-08-05T04:34:31.729Z,100045.09
2022-08-05T04:36:57.132Z,100035.31
2022-08-05T04:39:24.206Z,100030.81
2022-08-05T04:41:54.354Z,100028.38
2022-08-05T04:44:29.705Z,100039.75
2022-08-05T04:46:58.476Z,100028.78
2022-08-05T04:49:38.377Z,100030.03
2022-08-05T04:52:12.944Z,100021.03
2022-08-05T04:54:39.817Z,100024.47
2022-08-05T04:57:06.671Z,100026.13
2022-08-05T04:59:38.599Z,100017.69
2022-08-05T05:02:36.766Z,100021.06
2022-08-05T05:05:02.155Z,100014.84
2022-08-05T05:07:32.373Z,100019.13
2022-08-05T05:10:02.168Z,100021.09
2022-08-05T05:12:29.972Z,100016.97
2022-08-05T05:14:56.801Z,100020.94
2022-08-05T05:17:55.423Z,100026.28
2022-08-05T05:20:12.426Z,100018.44
2022-08-05T05:22:40.924Z,100020.19
2022-08-05T05:25:17.023Z,100016.84
2022-08-05T05:27:48.659Z,100021.88
2022-08-05T05:30:29.533Z,100018.41
2022-08-05T05:33:00.919Z,100015.91
2022-08-05T05:35:39.596Z,100028.78
2022-08-05T05:38:08.902Z,100031.91
2022-08-05T05:40:36.700Z,100020.13
2022-08-05T05:43:03.620Z,100025.53
2022-08-05T05:45:30.526Z,100023.34
2022-08-05T05:48:06.292Z,100030.00
2022-08-05T05:50:43.912Z,100031.66
2022-08-05T05:53:21.104Z,100033.69
2022-08-05T05:55:51.941Z,100029.63
2022-08-05T05:58:31.731Z,100029.88
2022-08-05T06:01:12.971Z,100031.50
2022-08-05T06:04:01.272Z,100027.88
2022-08-05T06:06:31.214Z,100018.19
2022-08-05T06:09:00.264Z,100022.22
2022-08-05T06:11:28.967Z,100026.38
2022-08-05T06:13:56.537Z,100025.69
2022-08-05T06:16:30.073Z,100027.91
2022-08-05T06:19:01.820Z,100025.06
2022-08-05T06:21:35.999Z,100026.06
2022-08-05T06:24:12.233Z,100028.41
2022-08-05T06:26:51.406Z,100024.94
2022-08-05T06:29:42.838Z,100015.09
2022-08-05T06:32:21.321Z,100017.38
2022-08-05T06:34:57.244Z,100027.28
2022-08-05T06:37:56.461Z,100023.53
2022-08-05T06:40:20.629Z,100012.72
2022-08-05T06:42:52.287Z,100020.50
2022-08-05T06:45:20.708Z,100017.50
2022-08-05T06:48:37.246Z,100022.94
2022-08-05T06:50:35.482Z,100012.00
2022-08-05T06:53:11.244Z,100008.41
2022-08-05T06:55:41.993Z,100014.94
2022-08-05T06:58:20.196Z,100018.88
2022-08-05T07:01:00.293Z,100015.63
2022-08-05T07:03:32.405Z,100019.97
2022-08-05T07:06:06.137Z,100015.97
2022-08-05T07:08:47.296Z,100010.19
2022-08-05T07:11:22.172Z,100015.84
2022-08-05T07:14:20.553Z,100014.56
2022-08-05T07:17:59.113Z,100014.63
2022-08-05T07:20:31.212Z,100026.28
2022-08-05T07:22:35.119Z,100022.88
2022-08-05T07:25:23.655Z,100017.00
2022-08-05T07:27:57.161Z,100023.66
2022-08-05T07:30:38.725Z,100021.72
2022-08-05T07:33:09.938Z,100012.25
2022-08-05T08:57:11.541Z,99987.50
2022-08-05T08:59:41.671Z,99973.66
2022-08-05T09:02:14.722Z,99980.94
2022-08-05T09:04:58.250Z,99988.69
2022-08-05T09:07:39.826Z,99984.47
2022-08-05T09:10:19.079Z,99982.34
2022-08-05T09:12:46.063Z,99971.69
2022-08-05T09:15:18.186Z,99974.81
2022-08-05T09:17:49.783Z,99976.13
2022-08-05T09:20:36.354Z,99973.63
2022-08-05T09:23:19.057Z,99969.06
2022-08-05T09:26:01.420Z,99967.00
2022-08-05T09:28:33.553Z,99958.88
2022-08-05T09:31:22.732Z,99952.69
2022-08-05T09:33:53.142Z,99949.81
2022-08-05T09:36:20.613Z,99956.97
2022-08-05T09:39:01.109Z,99951.69
2022-08-05T09:41:33.174Z,99955.31
2022-08-05T09:44:06.083Z,99950.34
2022-08-05T09:46:35.077Z,99945.50
2022-08-05T09:49:19.523Z,99936.06
2022-08-05T09:51:49.924Z,99933.69
2022-08-05T09:54:21.464Z,99929.91
2022-08-05T09:56:57.494Z,99937.03
2022-08-05T09:59:28.425Z,99934.38
2022-08-05T10:01:58.533Z,99930.78
2022-08-05T10:04:35.034Z,99924.34
2022-08-05T10:07:14.133Z,99928.75
2022-08-05T10:10:13.854Z,99924.03
2022-08-05T10:12:53.021Z,99914.41
2022-08-05T10:15:49.369Z,99917.47
2022-08-05T10:18:20.370Z,99914.25
2022-08-05T10:20:51.112Z,99909.97
2022-08-05T10:23:59.235Z,99909.56
2022-08-05T10:26:56.477Z,99911.50
2022-08-05T10:30:07.024Z,99912.19
2022-08-05T10:32:52.721Z,99911.06
2022-08-05T10:36:12.024Z,99897.00
2022-08-05T10:38:54.299Z,99895.28
2022-08-05T10:42:18.941Z,99902.75
2022-08-05T10:45:42.054Z,99897.31
2022-08-05T10:48:56.501Z,99895.38
2022-08-05T10:55:16.136Z,99887.38
2022-08-05T10:58:14.931Z,99884.97
2022-08-05T11:00:47.177Z,99877.50
2022-08-05T11:03:52.323Z,99871.59
2022-08-05T11:07:01.474Z,99878.31
2022-08-05T11:09:46.189Z,99873.47
2022-08-05T11:12:42.426Z,99868.88
2022-08-05T11:16:01.217Z,99862.38
2022-08-05T11:20:16.683Z,99854.38
2022-08-05T11:33:43.815Z,99853.97
2022-08-05T11:40:02.980Z,99852.09
2022-08-05T11:42:32.120Z,99852.75
2022-08-05T11:46:14.553Z,99851.53
2022-08-05T11:48:16.170Z,99844.66
2022-08-05T11:50:57.902Z,99849.25
2022-08-05T11:53:53.312Z,99842.94
2022-08-05T12:14:43.237Z,99845.66
2022-08-05T12:18:00.763Z,99843.72
2022-08-05T12:20:16.702Z,99844.75
2022-08-05T12:22:48.382Z,99837.16
2022-08-05T12:25:18.865Z,99834.31
2022-08-05T12:27:52.987Z,99841.53
2022-08-05T12:30:22.606Z,99834.66
2022-08-05T12:33:07.165Z,99831.00
2022-08-05T12:35:45.842Z,99823.63
2022-08-05T12:38:15.249Z,99820.75
2022-08-05T12:40:42.227Z,99818.50
2022-08-05T12:43:11.762Z,99814.97
2022-08-05T12:45:54.090Z,99811.75
2022-08-05T12:48:32.188Z,99813.66
2022-08-05T12:52:13.810Z,99811.97
2022-08-05T12:54:33.028Z,99811.75
2022-08-05T12:57:02.114Z,99807.25
2022-08-05T13:00:09.057Z,99801.38
2022-08-05T13:02:30.683Z,99794.66
2022-08-05T13:04:57.755Z,99789.31
2022-08-05T13:07:55.948Z,99793.06
2022-08-05T13:10:14.682Z,99789.13
2022-08-05T13:12:57.175Z,99785.78
2022-08-05T13:15:41.129Z,99785.47
2022-08-05T13:18:19.741Z,99781.94
2022-08-05T13:20:47.634Z,99772.91
2022-08-05T13:23:17.991Z,99780.19
2022-08-05T13:25:51.805Z,99774.16
2022-08-05T13:28:27.150Z,99775.81
2022-08-05T13:30:54.091Z,99770.69
2022-08-05T13:34:21.230Z,99768.34
2022-08-05T13:36:09.167Z,99756.78
2022-08-05T13:38:42.384Z,99760.88
2022-08-05T13:41:11.496Z,99760.94
2022-08-05T13:43:45.890Z,99761.72
2022-08-05T13:46:43.734Z,99748.00
2022-08-05T13:49:12.992Z,99750.78
2022-08-05T13:51:46.318Z,99743.00
2022-08-05T13:54:15.467Z,99735.50
2022-08-05T13:56:45.415Z,99742.34
2022-08-05T13:59:24.134Z,99745.19
2022-08-05T14:01:59.097Z,99741.19
2022-08-05T14:04:55.543Z,99743.13
2022-08-05T14:07:56.270Z,99733.59
2022-08-05T14:10:13.512Z,99728.41
2022-08-05T14:12:42.618Z,99720.72
2022-08-05T14:16:05.347Z,99715.97
2022-08-05T14:17:59.657Z,99723.56
2022-08-05T14:20:28.334Z,99716.47
2022-08-05T14:22:55.870Z,99715.25
2022-08-05T14:25:28.239Z,99708.91
2022-08-05T14:27:58.386Z,99705.69
2022-08-05T14:30:26.606Z,99705.59
2022-08-05T14:32:54.890Z,99707.56
2022-08-05T14:35:23.757Z,99696.44
2022-08-05T14:38:04.532Z,99691.19
2022-08-05T14:40:31.362Z,99691.63
2022-08-05T14:42:58.436Z,99683.28
2022-08-05T14:45:25.867Z,99690.09
2022-08-05T14:48:05.084Z,99681.22
2022-08-05T14:50:33.351Z,99670.03
2022-08-05T14:53:07.122Z,99680.00
2022-08-05T14:55:39.117Z,99673.34
2022-08-05T14:58:11.279Z,99676.66
2022-08-05T15:00:58.388Z,99671.50
2022-08-05T15:03:33.251Z,99673.22
2022-08-05T15:06:07.858Z,99673.84
2022-08-05T15:09:01.541Z,99680.19
2022-08-05T15:11:52.564Z,99673.78
2022-08-05T15:14:34.871Z,99678.38
2022-08-05T15:17:09.831Z,99672.91
2022-08-05T15:19:56.252Z,99684.09
2022-08-05T15:22:27.454Z,99682.94
2022-08-05T15:24:55.986Z,99683.69
2022-08-05T15:27:25.525Z,99677.28
2022-08-05T15:29:56.680Z,99671.00
2022-08-05T15:32:26.930Z,99679.97
2022-08-05T15:34:56.201Z,99676.13
2022-08-05T15:38:32.282Z,99682.78
2022-08-05T15:41:03.538Z,99673.16
2022-08-05T15:43:09.283Z,99678.06
2022-08-05T15:45:45.710Z,99677.72
2022-08-05T15:48:14.423Z,99681.75
2022-08-05T15:50:41.600Z,99678.38
2022-08-05T15:53:12.775Z,99678.19
2022-08-05T15:56:02.706Z,99680.19
2022-08-05T15:58:28.671Z,99677.97
2022-08-05T16:01:11.672Z,99680.75
2022-08-05T16:03:42.887Z,99676.09
2022-08-05T16:06:11.476Z,99680.84
2022-08-05T16:08:38.739Z,99674.56
2022-08-05T16:11:07.933Z,99679.78
2022-08-05T16:13:35.389Z,99682.97
2022-08-05T16:16:03.370Z,99686.19
2022-08-05T16:18:33.129Z,99689.19
2022-08-05T16:21:04.127Z,99681.97
2022-08-05T16:23:32.840Z,99689.13
2022-08-05T16:26:26.267Z,99674.75
2022-08-05T16:28:54.419Z,99677.38
2022-08-05T16:31:21.655Z,99675.44
2022-08-05T16:33:48.820Z,99683.56
2022-08-05T16:36:20.504Z,99681.00
2022-08-05T16:38:54.477Z,99675.53
2022-08-05T16:42:14.448Z,99682.34
2022-08-05T16:44:09.710Z,99664.50
2022-08-05T16:46:38.698Z,99674.44
2022-08-05T16:49:09.934Z,99674.81
2022-08-05T16:51:50.242Z,99675.69
2022-08-05T16:54:25.745Z,99680.69
2022-08-05T16:56:55.747Z,99672.97
2022-08-05T16:59:22.993Z,99679.66
2022-08-05T17:01:52.728Z,99677.50
2022-08-05T17:04:22.165Z,99683.06
2022-08-05T17:06:53.591Z,99679.66
2022-08-05T17:09:21.017Z,99683.50
2022-08-05T17:11:52.367Z,99683.50
2022-08-05T17:14:22.505Z,99687.81
2022-08-05T17:17:02.683Z,99694.84
2022-08-05T17:19:29.588Z,99687.09
2022-08-05T17:21:57.654Z,99698.19
2022-08-05T17:24:33.963Z,99680.97
2022-08-05T17:27:06.011Z,99694.47
2022-08-05T17:29:41.230Z,99693.03
2022-08-05T17:32:11.498Z,99692.78
2022-08-05T17:34:43.654Z,99696.50
2022-08-05T17:37:27.336Z,99703.00
2022-08-05T17:40:00.006Z,99704.22
2022-08-05T17:42:31.991Z,99703.50
2022-08-05T17:45:17.863Z,99702.81
2022-08-05T17:47:53.527Z,99707.59
2022-08-05T17:50:28.910Z,99718.38
2022-08-05T17:53:01.498Z,99715.28
2022-08-05T17:55:34.540Z,99723.22
2022-08-05T17:58:12.216Z,99712.47
2022-08-05T18:00:44.912Z,99724.50
2022-08-05T18:03:24.150Z,99724.25
2022-08-05T18:06:04.742Z,99716.00
2022-08-05T18:08:34.853Z,99716.59
2022-08-05T18:11:03.205Z,99721.81
2022-08-05T18:13:36.937Z,99718.13
2022-08-05T18:16:14.628Z,99721.31
2022-08-05T18:19:04.850Z,99716.91
2022-08-05T18:22:09.470Z,99718.63
2022-08-05T18:24:36.941Z,99715.78
2022-08-05T18:27:12.685Z,99719.44
2022-08-05T18:29:53.601Z,99718.16
2022-08-05T18:32:28.284Z,99723.66
2022-08-05T18:35:14.096Z,99712.44
2022-08-05T18:37:42.299Z,99716.41
2022-08-05T18:40:34.095Z,99717.53
2022-08-05T18:43:17.083Z,99726.03
2022-08-05T18:45:55.196Z,99730.69
2022-08-05T18:48:33.969Z,99729.84
2022-08-05T18:52:05.715Z,99736.03
2022-08-05T18:54:12.904Z,99741.22
2022-08-05T18:56:40.107Z,99741.28
2022-08-05T18:59:44.228Z,99750.34
2022-08-05T19:01:58.179Z,99756.63
2022-08-05T19:04:25.989Z,99760.13
2022-08-05T19:06:53.509Z,99763.53
2022-08-05T19:09:21.314Z,99765.16
2022-08-05T19:12:00.249Z,99776.41
2022-08-05T19:14:59.328Z,99782.25
2022-08-05T19:17:16.483Z,99772.94
2022-08-05T19:19:46.976Z,99779.00
2022-08-05T19:22:17.068Z,99780.34
2022-08-05T19:24:56.127Z,99775.66
2022-08-05T19:27:27.815Z,99777.44
2022-08-05T19:29:57.889Z,99787.16
2022-08-05T19:32:26.159Z,99778.28
2022-08-05T19:34:55.799Z,99785.59
2022-08-05T19:37:30.049Z,99783.13
2022-08-05T19:40:10.930Z,99787.84
2022-08-05T19:42:38.779Z,99789.53
2022-08-05T19:45:07.275Z,99780.19
2022-08-05T19:47:37.667Z,99785.38
2022-08-05T19:50:06.190Z,99782.63
2022-08-05T19:52:34.951Z,99785.63
2022-08-05T19:55:06.586Z,99794.16
2022-08-05T19:57:47.373Z,99796.00
2022-08-05T20:00:21.240Z,99791.03
2022-08-05T20:02:48.102Z,99796.59
2022-08-05T20:05:16.624Z,99809.84
2022-08-05T20:07:56.336Z,99803.53
2022-08-05T20:10:25.957Z,99801.47
2022-08-05T20:12:52.969Z,99810.81
2022-08-05T20:15:48.529Z,99812.44
2022-08-05T20:18:10.906Z,99808.53
2022-08-05T20:20:56.478Z,99804.81
2022-08-05T20:23:40.033Z,99810.66
2022-08-05T20:26:15.280Z,99806.06
2022-08-05T20:28:44.881Z,99795.56
2022-08-05T20:31:11.784Z,99794.88
2022-08-05T20:33:38.721Z,99796.03
2022-08-05T20:36:10.226Z,99800.03
2022-08-05T20:38:53.152Z,99803.50
2022-08-05T20:41:23.895Z,99806.94
2022-08-05T20:44:00.374Z,99803.44
2022-08-05T20:46:33.633Z,99803.63
2022-08-05T20:49:00.481Z,99801.50
2022-08-05T20:51:29.906Z,99803.81
2022-08-05T20:54:01.182Z,99809.13
2022-08-05T20:56:31.867Z,99803.75
2022-08-05T20:59:11.221Z,99801.91
2022-08-05T21:01:46.968Z,99800.88
2022-08-05T21:04:14.314Z,99804.84
2022-08-05T21:06:45.824Z,99806.72
2022-08-05T21:09:14.302Z,99812.50
2022-08-05T21:12:06.988Z,99811.75
2022-08-05T21:14:34.840Z,99812.13
2022-08-05T21:17:05.905Z,99802.63
2022-08-05T21:19:46.611Z,99805.06
2022-08-05T21:22:18.562Z,99813.88
2022-08-05T21:24:51.634Z,99804.78
2022-08-05T21:27:20.556Z,99808.88
2022-08-05T21:29:51.935Z,99802.22
2022-08-05T21:32:20.949Z,99808.28
2022-08-05T21:35:09.134Z,99807.31
2022-08-05T21:37:41.423Z,99809.13
2022-08-05T21:40:13.158Z,99811.72
2022-08-05T21:42:44.804Z,99810.00
2022-08-05T21:45:13.716Z,99811.97
2022-08-05T21:47:57.111Z,99811.00
2022-08-05T21:50:27.615Z,99812.81
2022-08-05T21:52:59.032Z,99815.41
2022-08-05T21:55:43.077Z,99814.59
2022-08-05T21:58:19.536Z,99814.91
2022-08-05T22:00:51.470Z,99821.63
2022-08-05T22:03:20.536Z,99817.84
2022-08-05T22:06:06.489Z,99818.47
2022-08-05T22:08:35.309Z,99821.28
2022-08-05T22:11:02.251Z,99813.28
2022-08-05T22:14:34.175Z,99815.09
2022-08-05T22:16:41.477Z,99820.50
2022-08-05T22:19:56.039Z,99823.59
2022-08-05T22:21:54.668Z,99824.28
2022-08-05T22:24:52.074Z,99817.06
2022-08-05T22:28:09.704Z,99826.16
2022-08-05T22:30:32.295Z,99819.69
2022-08-05T22:33:04.058Z,99817.97
2022-08-05T22:35:48.032Z,99828.81
2022-08-05T22:38:16.872Z,99820.56
2022-08-05T22:40:50.087Z,99827.06
2022-08-05T22:43:37.432Z,99826.41
2022-08-05T22:46:13.434Z,99829.97
2022-08-05T22:48:50.042Z,99830.94
2022-08-05T22:51:23.243Z,99824.00
2022-08-05T22:54:04.099Z,99828.38
2022-08-05T22:56:31.398Z,99830.94
2022-08-05T22:59:04.156Z,99823.19
2022-08-05T23:02:04.123Z,99824.63
2022-08-05T23:04:32.378Z,99825.44
2022-08-05T23:06:59.323Z,99816.84
2022-08-05T23:09:28.043Z,99820.44
2022-08-05T23:12:13.250Z,99824.63
2022-08-05T23:14:40.151Z,99823.50
2022-08-05T23:17:34.613Z,99823.97
2022-08-05T23:20:06.404Z,99823.63
2022-08-05T23:22:43.840Z,99826.44
2022-08-05T23:25:17.080Z,99826.72
2022-08-05T23:30:53.322Z,99824.00
2022-08-05T23:33:25.811Z,99818.94
2022-08-05T23:36:06.269Z,99818.28
2022-08-05T23:38:36.998Z,99823.13
2022-08-05T23:41:03.978Z,99822.97
2022-08-05T23:44:02.980Z,99824.06
2022-08-05T23:46:20.593Z,99829.53
2022-08-05T23:49:00.919Z,99824.63
2022-08-05T23:51:52.728Z,99827.97
2022-08-05T23:54:25.969Z,99821.69
2022-08-05T23:56:58.296Z,99829.38
